Rechercher aéroport 
image banner adimage banner ad
image banner ad

DAAT - Tamenghasset/Aguenar-Hadj Bey Akhamok

Situé à Tamanrasset, Algeria

ICAO - DAAT, IATA - TMR

Données fournies par Airmate  

Information générale

Coordonnées: N22°48'40" E5°27'3"
Élévation : 4517 feet MSL.
 
Voir autres Aéroports à Tamanghasset Province

Données opérationnelles

Accessible au public
Heure actuelle UTC:
Heure actuelle locale:
Météo
METAR: DAAT 290100Z 00000KT CAVOK 20/M07 Q1023
TAF: TAF DAAT 282300Z 2900/2924 09008KT CAVOK
Voir NOTAMs / SUP AIP / TFR affectant cet aéroport [VIEW]
Fréquences de communication: [VIEW]

Pistes:

Identifiant RWYQFULongueur (ft)Largeur (ft)SurfaceLDA (ft)
0222°11811148ASP
20202°11811148
0881°10335148
26261°10335148

Coordonnées de l'aéroport

Adresse: Tamanrasset Algeria

Vue satellite de DAAT